Time;durP1;ratioP1;P1;durP2;ratioP2;P2;SDS_P1;SDS_P2;PMS_P1;PMS_P2;Temp;Humidity;BMP_temperature;BMP_pressure;BME280_temperature;BME280_humidity;BME280_pressure;Samples;Min_cycle;Max_cycle;Signal;HPM_P1;HPM_P2
2024/02/11 00:00:33;;;;;;;37.53;18.77;;;;;;;-146.25;100.00;52643.97;2087610;28;33321;-63
2024/02/11 00:01:36;;;;;;;35.10;19.45;;;;;;;-146.25;100.00;52676.41;2088435;28;29133;-63
2024/02/11 00:02:37;;;;;;;38.92;18.02;;;;;;;-146.25;100.00;52680.47;2088277;28;20045;-63
2024/02/11 00:03:39;;;;;;;37.88;18.05;;;;;;;-146.25;100.00;52682.47;2087733;28;33927;-63
2024/02/11 00:04:45;;;;;;;39.35;19.55;;;;;;;-146.25;100.00;52688.56;2087824;28;34669;-63
2024/02/11 00:05:49;;;;;;;38.60;19.05;;;;;;;-146.25;100.00;52684.50;2088192;28;32506;-63
2024/02/11 00:06:54;;;;;;;34.53;18.30;;;;;;;-146.25;100.00;52678.44;2087956;28;20034;-65
2024/02/11 00:07:58;;;;;;;35.25;18.92;;;;;;;-146.25;100.00;52680.47;2087905;28;32883;-63
2024/02/11 00:09:00;;;;;;;37.65;19.52;;;;;;;-146.25;100.00;52652.06;2087541;28;35367;-64
2024/02/11 00:10:02;;;;;;;46.10;20.23;;;;;;;-146.25;100.00;52656.13;2087734;28;27801;-65
2024/02/11 00:11:05;;;;;;;38.42;19.80;;;;;;;-146.25;100.00;52643.97;2087882;28;21893;-64
2024/02/11 00:12:08;;;;;;;42.25;19.95;;;;;;;-146.25;100.00;52660.19;2087989;28;30518;-65
2024/02/11 00:13:10;;;;;;;50.95;21.02;;;;;;;-146.25;100.00;52684.50;2088477;28;20997;-63
2024/02/11 00:14:14;;;;;;;48.00;20.65;;;;;;;-146.25;100.00;52674.38;2088778;28;20107;-63
2024/02/11 00:15:16;;;;;;;43.45;19.40;;;;;;;-146.25;100.00;52662.22;2087910;28;29225;-63
2024/02/11 00:16:20;;;;;;;38.63;19.25;;;;;;;-146.25;100.00;52694.66;2088335;28;20038;-62
2024/02/11 00:17:22;;;;;;;43.13;19.83;;;;;;;-146.25;100.00;52617.59;2087966;28;27854;-63
2024/02/11 00:18:28;;;;;;;48.25;20.70;;;;;;;-146.25;100.00;52676.41;2088338;28;20128;-63
2024/02/11 00:19:32;;;;;;;44.00;19.73;;;;;;;-146.25;100.00;52641.94;2087309;28;32419;-63
2024/02/11 00:20:34;;;;;;;49.35;19.92;;;;;;;-146.25;100.00;52631.78;2086817;28;33136;-63
2024/02/11 00:21:36;;;;;;;47.53;19.42;;;;;;;-146.25;100.00;52662.22;2088136;28;29967;-63
2024/02/11 00:22:38;;;;;;;53.20;21.48;;;;;;;-146.25;100.00;52619.63;2087791;28;34108;-62
2024/02/11 00:23:44;;;;;;;48.97;20.80;;;;;;;-146.25;100.00;52639.91;2087805;28;34147;-62
2024/02/11 00:24:46;;;;;;;49.03;20.75;;;;;;;-146.25;100.00;52648.00;2087761;28;34138;-63
2024/02/11 00:25:54;;;;;;;55.55;20.98;;;;;;;-146.25;100.00;52666.25;2087791;28;32970;-63
2024/02/11 00:26:56;;;;;;;50.38;19.55;;;;;;;-146.25;100.00;52652.06;2088131;28;31638;-63
2024/02/11 00:27:59;;;;;;;57.83;21.77;;;;;;;-146.25;100.00;52650.03;2088047;28;21283;-62
2024/02/11 00:29:01;;;;;;;47.38;20.77;;;;;;;-146.25;100.00;52639.91;2087535;28;21004;-63
2024/02/11 00:30:03;;;;;;;48.92;21.33;;;;;;;-146.25;100.00;52698.72;2087619;28;20119;-63
2024/02/11 00:31:08;;;;;;;49.78;21.83;;;;;;;-146.25;100.00;52680.47;2087171;28;29713;-63
2024/02/11 00:32:09;;;;;;;47.38;21.40;;;;;;;-146.25;100.00;52666.25;2087183;28;26420;-63
2024/02/11 00:33:11;;;;;;;50.45;21.55;;;;;;;-146.25;100.00;52635.84;2087765;28;33084;-63
2024/02/11 00:34:14;;;;;;;55.92;21.13;;;;;;;-146.25;100.00;52660.19;2087514;28;34620;-63
2024/02/11 00:35:18;;;;;;;55.05;22.73;;;;;;;-146.25;100.00;52625.72;2088254;28;20965;-63
2024/02/11 00:36:20;;;;;;;61.35;23.65;;;;;;;-146.25;100.00;52662.22;2088170;28;37629;-63
2024/02/11 00:37:22;;;;;;;56.33;23.42;;;;;;;-146.25;100.00;52678.44;2087662;28;36775;-63
2024/02/11 00:38:24;;;;;;;55.50;23.08;;;;;;;-146.25;100.00;52625.72;2088095;28;20045;-62
2024/02/11 00:39:25;;;;;;;62.45;23.02;;;;;;;-146.25;100.00;52680.47;2087729;28;36386;-62
2024/02/11 00:40:28;;;;;;;58.90;23.45;;;;;;;-146.25;100.00;52627.75;2087671;28;35710;-63
2024/02/11 00:41:29;;;;;;;57.33;23.58;;;;;;;-146.25;100.00;52668.28;2085372;28;20883;-62
2024/02/11 00:42:32;;;;;;;55.67;22.90;;;;;;;-146.25;100.00;52648.00;2087661;28;36132;-63
2024/02/11 00:43:36;;;;;;;61.90;23.83;;;;;;;-146.25;100.00;52652.06;2087210;28;36158;-63
2024/02/11 00:44:39;;;;;;;58.30;23.63;;;;;;;-146.25;100.00;52664.22;2087427;28;20164;-63
2024/02/11 00:45:40;;;;;;;59.90;23.67;;;;;;;-146.25;100.00;52650.03;2087346;28;35518;-63
2024/02/11 00:46:42;;;;;;;59.72;24.50;;;;;;;-146.25;100.00;52654.09;2087556;28;35640;-62
2024/02/11 00:47:47;;;;;;;58.25;24.25;;;;;;;-146.25;100.00;52674.38;2087923;28;20092;-62
2024/02/11 00:48:49;;;;;;;67.18;26.35;;;;;;;-146.25;100.00;52680.47;2087384;28;34142;-62
2024/02/11 00:49:55;;;;;;;63.00;25.23;;;;;;;-146.25;100.00;52680.47;2087720;28;34788;-63
2024/02/11 00:50:57;;;;;;;59.70;24.90;;;;;;;-146.25;100.00;52660.19;2088203;28;20038;-63
2024/02/11 00:51:58;;;;;;;59.35;24.33;;;;;;;-146.25;100.00;52684.50;2087193;28;35658;-63
2024/02/11 00:53:05;;;;;;;65.65;25.45;;;;;;;-146.25;100.00;52662.22;2087868;28;35257;-63
2024/02/11 00:54:09;;;;;;;65.50;24.83;;;;;;;-146.25;100.00;52674.38;2087780;28;35179;-63
2024/02/11 00:55:14;;;;;;;63.83;25.55;;;;;;;-146.25;100.00;52696.69;2088209;28;20085;-63
2024/02/11 00:56:15;;;;;;;63.05;25.17;;;;;;;-146.25;100.00;52670.31;2087557;28;36811;-63
2024/02/11 00:57:19;;;;;;;61.85;25.52;;;;;;;-146.25;100.00;52658.16;2095124;28;30614;-62
2024/02/11 00:58:20;;;;;;;69.43;26.50;;;;;;;-146.25;100.00;52662.22;2094933;28;35104;-63
2024/02/11 00:59:22;;;;;;;63.28;26.70;;;;;;;-146.25;100.00;52668.28;2088019;28;32204;-63
2024/02/11 01:00:24;;;;;;;64.97;25.30;;;;;;;-146.25;100.00;52660.19;2087463;28;28510;-63
2024/02/11 01:01:28;;;;;;;71.93;26.63;;;;;;;-146.25;100.00;52680.47;2088596;28;20042;-63
2024/02/11 01:02:30;;;;;;;71.03;26.55;;;;;;;-146.25;100.00;52696.69;2087242;28;36314;-63
2024/02/11 01:03:33;;;;;;;64.75;26.60;;;;;;;-146.25;100.00;52672.34;2088054;28;20077;-63
2024/02/11 01:04:38;;;;;;;69.07;26.48;;;;;;;-146.25;100.00;52650.03;2087204;28;35507;-63
2024/02/11 01:05:43;;;;;;;71.07;26.77;;;;;;;-146.25;100.00;52648.00;2087328;28;36170;-63
2024/02/11 01:06:45;;;;;;;65.15;26.40;;;;;;;-146.25;100.00;52639.91;2087052;28;33944;-62
2024/02/11 01:07:46;;;;;;;61.58;25.77;;;;;;;-146.25;100.00;52672.34;2087782;28;35494;-63
2024/02/11 01:08:51;;;;;;;73.47;26.90;;;;;;;-146.25;100.00;52643.97;2088081;28;20118;-63
2024/02/11 01:09:53;;;;;;;67.55;26.63;;;;;;;-146.25;100.00;52648.00;2087222;28;34458;-63
2024/02/11 01:10:54;;;;;;;69.13;26.25;;;;;;;-146.25;100.00;52631.78;2087164;28;32849;-62
2024/02/11 01:12:01;;;;;;;76.80;26.85;;;;;;;-146.25;100.00;52637.88;2087910;28;20041;-63
2024/02/11 01:13:04;;;;;;;72.68;26.52;;;;;;;-146.25;100.00;52670.31;2088218;28;20036;-63
2024/02/11 01:14:08;;;;;;;64.20;25.48;;;;;;;-146.25;100.00;52688.56;2088052;28;21141;-63
2024/02/11 01:15:13;;;;;;;61.60;25.17;;;;;;;-146.25;100.00;52645.97;2087581;28;24218;-62
2024/02/11 01:16:16;;;;;;;69.80;27.00;;;;;;;-146.25;100.00;52660.19;2087980;28;32259;-63
2024/02/11 01:17:19;;;;;;;67.00;27.05;;;;;;;-146.25;100.00;52648.00;2087456;28;28632;-62
2024/02/11 01:18:22;;;;;;;63.97;26.17;;;;;;;-146.25;100.00;52684.50;2088026;28;20050;-63
2024/02/11 01:19:24;;;;;;;70.53;26.20;;;;;;;-146.25;100.00;52637.88;2087835;28;20041;-63
2024/02/11 01:20:26;;;;;;;70.05;26.80;;;;;;;-146.25;100.00;52658.16;2087941;28;26944;-63
2024/02/11 01:21:28;;;;;;;70.90;27.42;;;;;;;-146.25;100.00;52666.25;2088393;28;22170;-63
2024/02/11 01:22:30;;;;;;;63.83;23.85;;;;;;;-146.25;100.00;52652.06;2087469;28;26385;-63
2024/02/11 01:23:31;;;;;;;77.72;28.55;;;;;;;-146.25;100.00;52654.09;2087687;28;32072;-62
2024/02/11 01:24:34;;;;;;;74.82;27.55;;;;;;;-146.25;100.00;52692.63;2087317;28;36529;-63
2024/02/11 01:25:36;;;;;;;69.13;27.10;;;;;;;-146.25;100.00;52670.31;2087547;28;37280;-63
2024/02/11 01:26:37;;;;;;;78.00;27.95;;;;;;;-146.25;100.00;52680.47;2087212;28;33906;-63
2024/02/11 01:27:41;;;;;;;76.03;27.65;;;;;;;-146.25;100.00;52668.28;2088041;28;20895;-63
2024/02/11 01:28:44;;;;;;;71.78;28.25;;;;;;;-146.25;100.00;52643.97;2088704;28;36763;-63
2024/02/11 01:29:46;;;;;;;73.63;28.95;;;;;;;-146.25;100.00;52696.69;2088876;28;32311;-63
2024/02/11 01:30:49;;;;;;;67.22;28.15;;;;;;;-146.25;100.00;52643.97;2088799;28;34045;-62
2024/02/11 01:31:51;;;;;;;72.85;28.35;;;;;;;-146.25;100.00;52654.09;2088978;28;35910;-62
2024/02/11 01:32:54;;;;;;;68.97;25.95;;;;;;;-146.25;100.00;52641.94;2089259;28;20168;-62
2024/02/11 01:33:56;;;;;;;79.80;28.00;;;;;;;-146.25;100.00;52672.34;2088931;28;37607;-63
2024/02/11 01:34:57;;;;;;;81.32;28.63;;;;;;;-146.25;100.00;52670.31;2088740;28;32689;-63
2024/02/11 01:35:59;;;;;;;71.97;28.60;;;;;;;-146.25;100.00;52678.44;2088521;28;33913;-64
2024/02/11 01:37:01;;;;;;;77.72;28.30;;;;;;;-146.25;100.00;52670.31;2088883;28;36803;-64
2024/02/11 01:38:06;;;;;;;76.95;29.98;;;;;;;-146.25;100.00;52656.13;2089257;28;20038;-62
2024/02/11 01:39:07;;;;;;;73.60;26.88;;;;;;;-146.25;100.00;52635.84;2088023;28;33003;-63
2024/02/11 01:40:15;;;;;;;78.72;29.33;;;;;;;-146.25;100.00;52662.22;2087961;28;34762;-62
2024/02/11 01:41:17;;;;;;;81.05;29.40;;;;;;;-146.25;100.00;52672.34;2088382;28;36034;-63
2024/02/11 01:42:19;;;;;;;79.07;29.23;;;;;;;-146.25;100.00;52637.88;2088202;28;35499;-64
2024/02/11 01:43:22;;;;;;;78.32;29.65;;;;;;;-146.25;100.00;52643.97;2089841;28;20906;-63
2024/02/11 01:44:27;;;;;;;79.20;30.58;;;;;;;-146.25;100.00;52623.69;2089347;28;20037;-62
2024/02/11 01:45:28;;;;;;;76.40;29.00;;;;;;;-146.25;100.00;52666.25;2088553;28;35146;-63
2024/02/11 01:46:30;;;;;;;87.10;30.33;;;;;;;-146.25;100.00;52658.16;2088289;28;36894;-63
2024/02/11 01:47:32;;;;;;;76.13;28.27;;;;;;;-146.25;100.00;52652.06;2088102;28;36514;-62
2024/02/11 01:48:34;;;;;;;75.35;29.48;;;;;;;-146.25;100.00;52645.97;2079896;28;34448;-63
2024/02/11 01:49:38;;;;;;;77.50;28.58;;;;;;;-146.25;100.00;52692.63;2080214;28;35132;-61
2024/02/11 01:50:43;;;;;;;78.38;26.20;;;;;;;-146.25;100.00;52664.22;2080052;28;35922;-62
2024/02/11 01:51:47;;;;;;;79.55;29.52;;;;;;;-146.25;100.00;52629.75;2087694;28;32425;-61
2024/02/11 01:52:52;;;;;;;84.38;30.35;;;;;;;-146.25;100.00;52694.66;2088704;28;34874;-62
2024/02/11 01:53:53;;;;;;;76.07;27.95;;;;;;;-146.25;100.00;52676.41;2088418;28;36796;-62
2024/02/11 01:54:55;;;;;;;76.63;30.00;;;;;;;-146.25;100.00;52668.28;2088864;28;34395;-62
2024/02/11 01:55:59;;;;;;;78.15;30.13;;;;;;;-146.25;100.00;52684.50;2088942;28;33355;-63
2024/02/11 01:57:02;;;;;;;94.18;30.45;;;;;;;-146.25;100.00;52615.56;2088354;28;20049;-62
2024/02/11 01:58:05;;;;;;;81.93;28.88;;;;;;;-146.25;100.00;52672.34;2088024;28;34936;-62
2024/02/11 01:59:11;;;;;;;80.15;29.25;;;;;;;-146.25;100.00;52641.94;2088550;28;20892;-62
2024/02/11 02:00:15;;;;;;;90.07;29.80;;;;;;;-146.25;100.00;52645.97;2080485;28;37438;-63
2024/02/11 02:01:20;;;;;;;81.78;31.13;;;;;;;-146.25;100.00;52641.94;2088735;28;20041;-63
2024/02/11 02:02:28;;;;;;;90.43;30.00;;;;;;;-146.25;100.00;52676.41;2087915;28;37775;-62
2024/02/11 02:03:29;;;;;;;89.85;31.02;;;;;;;-146.25;100.00;52660.19;2088001;28;34540;-63
2024/02/11 02:04:31;;;;;;;95.10;31.25;;;;;;;-146.25;100.00;52680.47;2088196;28;31738;-63
2024/02/11 02:05:33;;;;;;;91.90;31.52;;;;;;;-146.25;100.00;52662.22;2087744;28;37263;-63
2024/02/11 02:06:35;;;;;;;92.80;31.45;;;;;;;-146.25;100.00;52696.69;2089524;28;21180;-63
2024/02/11 02:07:41;;;;;;;93.22;32.38;;;;;;;-146.25;100.00;52684.50;2088535;28;36224;-63
2024/02/11 02:08:43;;;;;;;97.85;31.55;;;;;;;-146.25;100.00;52672.34;2088616;28;35140;-63
2024/02/11 02:09:45;;;;;;;88.88;31.88;;;;;;;-146.25;100.00;52633.81;2088198;28;35395;-63
2024/02/11 02:10:49;;;;;;;92.03;32.47;;;;;;;-146.25;100.00;52639.91;2088741;28;30938;-63
2024/02/11 02:11:51;;;;;;;97.28;32.88;;;;;;;-146.25;100.00;52639.91;2088434;28;20962;-63
2024/02/11 02:12:55;;;;;;;87.07;30.88;;;;;;;-146.25;100.00;52641.94;2088108;28;25840;-63
2024/02/11 02:13:57;;;;;;;106.65;33.58;;;;;;;-146.25;100.00;52668.28;2088867;28;23369;-62
2024/02/11 02:14:59;;;;;;;104.22;33.55;;;;;;;-146.25;100.00;52637.88;2088751;28;21771;-62
2024/02/11 02:16:00;;;;;;;114.68;34.63;;;;;;;-146.25;100.00;52660.19;2088732;28;28739;-62
2024/02/11 02:17:02;;;;;;;100.05;32.75;;;;;;;-146.25;100.00;52639.91;2089315;28;20935;-63
2024/02/11 02:18:07;;;;;;;99.63;33.95;;;;;;;-146.25;100.00;52678.44;2088039;28;36168;-62
2024/02/11 02:19:09;;;;;;;95.95;34.03;;;;;;;-146.25;100.00;52656.13;2087565;28;34490;-63
2024/02/11 02:20:14;;;;;;;103.70;34.15;;;;;;;-146.25;100.00;52662.22;2088069;28;32340;-63
2024/02/11 02:21:20;;;;;;;102.22;34.25;;;;;;;-146.25;100.00;52672.34;2089037;28;37046;-62
2024/02/11 02:22:22;;;;;;;105.82;34.40;;;;;;;-146.25;100.00;52674.38;2089259;28;20847;-62
2024/02/11 02:23:24;;;;;;;107.43;34.25;;;;;;;-146.25;100.00;52684.50;2088214;28;35826;-62
2024/02/11 02:24:26;;;;;;;95.85;33.28;;;;;;;-146.25;100.00;52639.91;2088587;28;35401;-63
2024/02/11 02:25:28;;;;;;;103.93;34.38;;;;;;;-146.25;100.00;52648.00;2088648;28;33021;-62
2024/02/11 02:26:29;;;;;;;94.00;32.85;;;;;;;-146.25;100.00;52670.31;2088152;28;38369;-62
2024/02/11 02:27:31;;;;;;;106.55;34.92;;;;;;;-146.25;100.00;52643.97;2088297;28;33894;-62
2024/02/11 02:28:34;;;;;;;114.30;34.97;;;;;;;-146.25;100.00;52637.88;2088682;28;35477;-62
2024/02/11 02:29:36;;;;;;;107.80;35.88;;;;;;;-146.25;100.00;52658.16;2088384;28;37954;-61
2024/02/11 02:30:38;;;;;;;106.60;34.38;;;;;;;-146.25;100.00;52645.97;2088390;28;36413;-62
2024/02/11 02:31:40;;;;;;;114.75;34.92;;;;;;;-146.25;100.00;52652.06;2088276;28;33598;-63
2024/02/11 02:32:41;;;;;;;110.03;35.10;;;;;;;-146.25;100.00;52637.88;2088290;28;38948;-62
2024/02/11 02:33:45;;;;;;;106.55;34.75;;;;;;;-146.25;100.00;52694.66;2088864;28;20044;-63
2024/02/11 02:34:47;;;;;;;112.93;35.28;;;;;;;-146.25;100.00;52666.25;2088340;28;37454;-61
2024/02/11 02:35:50;;;;;;;117.18;36.03;;;;;;;-146.25;100.00;52692.63;2088399;28;35068;-63
2024/02/11 02:36:52;;;;;;;100.45;34.78;;;;;;;-146.25;100.00;52648.00;2088436;28;34829;-62
2024/02/11 02:37:54;;;;;;;110.95;36.83;;;;;;;-146.25;100.00;52654.09;2088250;28;38688;-62
2024/02/11 02:38:56;;;;;;;106.38;36.55;;;;;;;-146.25;100.00;52668.28;2087475;28;35075;-62
2024/02/11 02:39:58;;;;;;;109.25;35.60;;;;;;;-146.25;100.00;52668.28;2087635;28;20049;-62
2024/02/11 02:41:00;;;;;;;111.10;35.83;;;;;;;-146.25;100.00;52696.69;2088121;28;36509;-63
2024/02/11 02:42:02;;;;;;;111.00;35.08;;;;;;;-146.25;100.00;52648.00;2088277;28;32050;-63
2024/02/11 02:43:10;;;;;;;116.55;36.15;;;;;;;-146.25;100.00;52698.72;2088095;28;37443;-62
2024/02/11 02:44:12;;;;;;;112.60;35.55;;;;;;;-146.25;100.00;52639.91;2088567;28;35270;-62
2024/02/11 02:45:16;;;;;;;119.32;36.60;;;;;;;-146.25;100.00;52684.50;2087804;28;35975;-63
2024/02/11 02:46:18;;;;;;;110.28;36.45;;;;;;;-146.25;100.00;52684.50;2088310;28;36280;-62
2024/02/11 02:47:20;;;;;;;114.85;36.05;;;;;;;-146.25;100.00;52680.47;2088089;28;35813;-63
2024/02/11 02:48:22;;;;;;;110.63;37.05;;;;;;;-146.25;100.00;52684.50;2088418;28;38430;-63
2024/02/11 02:49:24;;;;;;;125.55;36.67;;;;;;;-146.25;100.00;52660.19;2087954;28;36305;-62
2024/02/11 02:50:26;;;;;;;114.18;37.03;;;;;;;-146.25;100.00;52674.38;2089651;28;20762;-62
2024/02/11 02:51:28;;;;;;;112.90;36.05;;;;;;;-146.25;100.00;52676.41;2088192;28;37313;-62
2024/02/11 02:52:30;;;;;;;120.28;38.20;;;;;;;-146.25;100.00;52637.88;2088127;28;32541;-62
2024/02/11 02:53:31;;;;;;;123.00;37.40;;;;;;;-146.25;100.00;52654.09;2088354;28;33306;-63
2024/02/11 02:54:35;;;;;;;114.20;36.30;;;;;;;-146.25;100.00;52666.25;2088768;28;20038;-62
2024/02/11 02:55:38;;;;;;;113.00;36.97;;;;;;;-146.25;100.00;52676.41;2088328;28;36037;-62
2024/02/11 02:56:40;;;;;;;113.47;36.42;;;;;;;-146.25;100.00;52668.28;2087961;28;35201;-62
2024/02/11 02:57:42;;;;;;;110.18;35.22;;;;;;;-146.25;100.00;52688.56;2088125;28;35950;-63
2024/02/11 02:58:44;;;;;;;108.90;34.25;;;;;;;-146.25;100.00;52664.22;2088156;28;34113;-62
2024/02/11 02:59:46;;;;;;;103.75;34.75;;;;;;;-146.25;100.00;52635.84;2088378;28;34926;-63
2024/02/11 03:00:50;;;;;;;118.13;35.13;;;;;;;-146.25;100.00;52714.94;2088011;28;20041;-62
2024/02/11 03:02:01;;;;;;;112.45;35.50;;;;;;;-146.25;100.00;52650.03;2088241;28;36361;-63
2024/02/11 03:03:06;;;;;;;111.60;35.72;;;;;;;-146.25;100.00;52686.53;2088434;28;31342;-63
2024/02/11 03:04:11;;;;;;;106.97;34.78;;;;;;;-146.25;100.00;52686.53;2088721;28;20952;-63
2024/02/11 03:05:14;;;;;;;114.85;35.20;;;;;;;-146.25;100.00;52643.97;2088005;28;37382;-62
2024/02/11 03:06:16;;;;;;;115.97;35.95;;;;;;;-146.25;100.00;52650.03;2088328;28;32966;-63
2024/02/11 03:07:18;;;;;;;103.90;33.97;;;;;;;-146.25;100.00;52682.47;2087833;28;37797;-62
2024/02/11 03:08:22;;;;;;;106.45;33.92;;;;;;;-146.25;100.00;52656.13;2089017;28;20141;-63
2024/02/11 03:09:26;;;;;;;95.47;31.90;;;;;;;-146.25;100.00;52660.19;2087983;28;35513;-64
2024/02/11 03:10:28;;;;;;;99.35;33.25;;;;;;;-146.25;100.00;52688.56;2088142;28;34562;-63
2024/02/11 03:11:30;;;;;;;113.45;34.30;;;;;;;-146.25;100.00;52650.03;2087869;28;33140;-63
2024/02/11 03:12:32;;;;;;;101.00;31.63;;;;;;;-146.25;100.00;52670.31;2088319;28;29418;-61
2024/02/11 03:13:33;;;;;;;110.20;33.35;;;;;;;-146.25;100.00;52674.38;2088626;28;31156;-62
2024/02/11 03:14:35;;;;;;;97.82;32.90;;;;;;;-146.25;100.00;52670.31;2088210;28;27019;-62
2024/02/11 03:15:37;;;;;;;109.38;33.40;;;;;;;-146.25;100.00;52623.69;2088537;28;24261;-63
2024/02/11 03:16:40;;;;;;;99.47;33.47;;;;;;;-146.25;100.00;52656.13;2087937;28;33101;-62
2024/02/11 03:17:44;;;;;;;109.93;33.75;;;;;;;-146.25;100.00;52666.25;2088321;28;26661;-62
2024/02/11 03:18:46;;;;;;;106.90;34.33;;;;;;;-146.25;100.00;52686.53;2088114;28;35827;-62
2024/02/11 03:19:48;;;;;;;100.60;33.67;;;;;;;-146.25;100.00;52656.13;2088014;28;36818;-62
2024/02/11 03:20:50;;;;;;;103.90;33.47;;;;;;;-146.25;100.00;52656.13;2088507;28;20041;-63
2024/02/11 03:21:52;;;;;;;94.80;33.20;;;;;;;-146.25;100.00;52704.78;2088106;28;36290;-62
2024/02/11 03:22:55;;;;;;;103.10;34.15;;;;;;;-146.25;100.00;52680.47;2087893;28;34651;-62
2024/02/11 03:23:57;;;;;;;91.35;32.80;;;;;;;-146.25;100.00;52658.16;2088294;28;35915;-62
2024/02/11 03:24:58;;;;;;;93.10;32.45;;;;;;;-146.25;100.00;52678.44;2087988;28;36146;-63
2024/02/11 03:26:00;;;;;;;102.97;32.78;;;;;;;-146.25;100.00;52700.72;2087814;28;38342;-63
2024/02/11 03:27:02;;;;;;;94.20;33.08;;;;;;;-146.25;100.00;52680.47;2088071;28;27757;-63
2024/02/11 03:28:04;;;;;;;89.18;32.22;;;;;;;-146.25;100.00;52656.13;2087808;28;36323;-63
2024/02/11 03:29:06;;;;;;;91.82;31.45;;;;;;;-146.25;100.00;52668.28;2088019;28;36997;-63
2024/02/11 03:30:10;;;;;;;98.30;33.00;;;;;;;-146.25;100.00;52660.19;2087940;28;36984;-62
2024/02/11 03:31:12;;;;;;;94.93;31.15;;;;;;;-146.25;100.00;52670.31;2087837;28;39442;-62
2024/02/11 03:32:16;;;;;;;103.70;31.98;;;;;;;-146.25;100.00;52672.34;2088696;28;20828;-63
2024/02/11 03:33:18;;;;;;;95.45;31.77;;;;;;;-146.25;100.00;52664.22;2087878;28;37922;-62
2024/02/11 03:34:19;;;;;;;87.13;30.40;;;;;;;-146.25;100.00;52660.19;2087818;28;38200;-62
2024/02/11 03:35:21;;;;;;;86.85;30.52;;;;;;;-146.25;100.00;52672.34;2088626;28;33475;-62
2024/02/11 03:36:24;;;;;;;91.00;29.90;;;;;;;-146.25;100.00;52682.47;2088035;28;34416;-62
2024/02/11 03:37:32;;;;;;;86.07;30.70;;;;;;;-146.25;100.00;52660.19;2095861;28;36063;-62
2024/02/11 03:38:36;;;;;;;87.10;29.90;;;;;;;-146.25;100.00;52684.50;2094817;28;35840;-62
2024/02/11 03:39:40;;;;;;;92.63;31.02;;;;;;;-146.25;100.00;52696.69;2087700;28;38552;-63
2024/02/11 03:40:42;;;;;;;87.38;31.10;;;;;;;-146.25;100.00;52700.72;2088658;28;34641;-62
2024/02/11 03:41:43;;;;;;;96.30;31.85;;;;;;;-146.25;100.00;52656.13;2087845;28;34928;-61
2024/02/11 03:42:45;;;;;;;93.40;30.20;;;;;;;-146.25;100.00;52676.41;2087370;28;37951;-62
2024/02/11 03:43:47;;;;;;;85.25;29.33;;;;;;;-146.25;100.00;52672.34;2088269;28;36371;-62
2024/02/11 03:44:51;;;;;;;94.90;31.17;;;;;;;-146.25;100.00;52660.19;2088274;28;21327;-62
2024/02/11 03:45:53;;;;;;;91.72;30.00;;;;;;;-146.25;100.00;52670.31;2087918;28;32781;-62
2024/02/11 03:46:54;;;;;;;79.85;28.13;;;;;;;-146.25;100.00;52652.06;2087779;28;35078;-63
2024/02/11 03:47:59;;;;;;;85.50;29.55;;;;;;;-146.25;100.00;52658.16;2087920;28;37488;-63
2024/02/11 03:49:03;;;;;;;90.70;30.30;;;;;;;-146.25;100.00;52700.72;2087226;28;33653;-64
2024/02/11 03:50:08;;;;;;;87.22;29.58;;;;;;;-146.25;100.00;52635.84;2087328;28;37393;-63
2024/02/11 03:51:10;;;;;;;82.85;29.77;;;;;;;-146.25;100.00;52656.13;2087204;28;32531;-64
2024/02/11 03:52:15;;;;;;;81.65;28.35;;;;;;;-146.25;100.00;52674.38;2088090;28;35420;-64
2024/02/11 03:53:21;;;;;;;82.90;28.88;;;;;;;-146.25;100.00;52641.94;2088174;28;37094;-64
2024/02/11 03:54:23;;;;;;;94.10;30.25;;;;;;;-146.25;100.00;52672.34;2088166;28;31512;-64
2024/02/11 03:55:29;;;;;;;83.65;29.10;;;;;;;-146.25;100.00;52686.53;2087554;28;35769;-64
2024/02/11 03:56:35;;;;;;;91.75;31.13;;;;;;;-146.25;100.00;52678.44;2087878;28;34166;-64
2024/02/11 03:57:40;;;;;;;97.20;31.35;;;;;;;-146.25;100.00;52674.38;2088292;28;36420;-63
2024/02/11 03:58:42;;;;;;;88.93;29.80;;;;;;;-146.25;100.00;52660.19;2088435;28;20917;-64
2024/02/11 03:59:45;;;;;;;80.97;28.73;;;;;;;-146.25;100.00;52652.06;2087574;28;35023;-64
2024/02/11 04:00:48;;;;;;;83.95;30.55;;;;;;;-146.25;100.00;52700.72;2088004;28;35759;-64
2024/02/11 04:01:49;;;;;;;86.07;30.08;;;;;;;-146.25;100.00;52694.66;2087779;28;34972;-63
2024/02/11 04:02:53;;;;;;;93.57;31.08;;;;;;;-146.25;100.00;52688.56;2087723;28;36096;-63
2024/02/11 04:03:55;;;;;;;89.75;29.75;;;;;;;-146.25;100.00;52666.25;2088195;28;20474;-64
2024/02/11 04:04:58;;;;;;;93.70;31.50;;;;;;;-146.25;100.00;52682.47;2087930;28;35501;-64
2024/02/11 04:06:01;;;;;;;88.05;30.05;;;;;;;-146.25;100.00;52696.69;2087670;28;33635;-63
2024/02/11 04:07:03;;;;;;;92.50;31.15;;;;;;;-146.25;100.00;52658.16;2087921;28;34808;-64
2024/02/11 04:08:08;;;;;;;88.38;29.75;;;;;;;-146.25;100.00;52672.34;2087684;28;33811;-64
2024/02/11 04:09:13;;;;;;;88.75;29.40;;;;;;;-146.25;100.00;52686.53;2087597;28;35578;-64
2024/02/11 04:10:28;;;;;;;85.45;29.73;;;;;;;-146.25;100.00;52648.00;2087802;28;32448;-62
2024/02/11 04:11:31;;;;;;;92.13;30.98;;;;;;;-146.25;100.00;52656.13;2087576;28;34476;-64
2024/02/11 04:12:32;;;;;;;86.57;30.27;;;;;;;-146.25;100.00;52662.22;2088377;28;20053;-63
2024/02/11 04:13:34;;;;;;;85.55;30.15;;;;;;;-146.25;100.00;52692.63;2087929;28;27707;-64
2024/02/11 04:14:36;;;;;;;94.78;31.92;;;;;;;-146.25;100.00;52639.91;2087413;28;30388;-62
2024/02/11 04:15:41;;;;;;;89.25;31.65;;;;;;;-146.25;100.00;52678.44;2087714;28;34049;-62
2024/02/11 04:16:43;;;;;;;98.38;31.67;;;;;;;-146.25;100.00;52668.28;2087708;28;34973;-62
2024/02/11 04:17:53;;;;;;;98.05;33.53;;;;;;;-146.25;100.00;52658.16;2088321;28;20084;-62
2024/02/11 04:18:59;;;;;;;93.57;31.85;;;;;;;-146.25;100.00;52643.97;2086711;28;39351;-62
2024/02/11 04:20:00;;;;;;;92.35;31.67;;;;;;;-146.25;100.00;52660.19;2086704;28;36744;-62
2024/02/11 04:21:04;;;;;;;107.45;33.33;;;;;;;-146.25;100.00;52682.47;2088304;28;33710;-62
2024/02/11 04:22:07;;;;;;;97.00;33.17;;;;;;;-146.25;100.00;52639.91;2087214;28;37130;-62
2024/02/11 04:23:09;;;;;;;92.78;32.20;;;;;;;-146.25;100.00;52668.28;2088321;28;20049;-62
2024/02/11 04:24:15;;;;;;;100.53;33.22;;;;;;;-146.25;100.00;52639.91;2087469;28;36322;-62
2024/02/11 04:25:20;;;;;;;93.03;32.38;;;;;;;-146.25;100.00;52656.13;2087967;28;34438;-62
2024/02/11 04:26:24;;;;;;;107.97;32.60;;;;;;;-146.25;100.00;52629.75;2087347;28;33772;-62
2024/02/11 04:27:28;;;;;;;107.13;34.05;;;;;;;-146.25;100.00;52650.03;2087829;28;20030;-62
2024/02/11 04:28:30;;;;;;;98.15;32.25;;;;;;;-146.25;100.00;52682.47;2088250;28;20152;-62
2024/02/11 04:29:38;;;;;;;92.93;31.88;;;;;;;-146.25;100.00;52690.59;2088002;28;20164;-62
2024/02/11 04:30:42;;;;;;;103.15;32.38;;;;;;;-146.25;100.00;52684.50;2087616;28;32292;-62
2024/02/11 04:31:44;;;;;;;106.25;33.40;;;;;;;-146.25;100.00;52676.41;2087589;28;20041;-62
2024/02/11 04:32:51;;;;;;;95.18;33.38;;;;;;;-146.25;100.00;52668.28;2086580;28;37104;-62
2024/02/11 04:33:52;;;;;;;96.20;29.73;;;;;;;-146.25;100.00;52643.97;2087962;28;33802;-62
2024/02/11 04:34:54;;;;;;;111.10;32.55;;;;;;;-146.25;100.00;52666.25;2079993;28;27596;-63
2024/02/11 04:35:59;;;;;;;103.25;33.63;;;;;;;-146.25;100.00;52627.75;2079718;28;38205;-62
2024/02/11 04:37:01;;;;;;;103.10;32.47;;;;;;;-146.25;100.00;52645.97;2080061;28;20753;-62
2024/02/11 04:38:12;;;;;;;102.88;32.90;;;;;;;-146.25;100.00;52674.38;2086775;28;39923;-62
2024/02/11 04:39:15;;;;;;;90.53;31.58;;;;;;;-146.25;100.00;52700.72;2085676;28;38244;-62